Terminal Aerodrome Forecast
Issued by NWS Louisville, KY

Home | Current Version | Previous Version | Text Only | Print | Product List | Glossary On
Versions: 1 2 3 4 5 6 7 8 9 10 11 12 13 14
000
FTUS43 KLMK 041728
TAFLEX
TAF
KLEX 041728Z 0418/0518 29007KT P6SM SCT050 SCT150
     FM050200 VRB03KT P6SM SCT050 BKN150
      TEMPO 0508/0512 5SM -SHRA BR
     FM051300 VRB03KT P6SM SCT050 BKN180=

USA.gov is the U.S. government's official web portal to all federal, state and local government web resources and services.